DW9447 Weather Reports


Display with metric or nautical units.
time (UTC)temp
F
wind
direction
speed
MPH
gust
MPH
rain 1hr
in
rain 24hr
in
rain mn
in
humidity
%
barometer
mb
20220525035727 67 75 1.0 4.0 0.11 0.48 0.48 95 1016.4
20220525035231 67 351 0.0 2.0 0.12 0.48 0.48 95 1016.4
20220525034730 67 351 0.0 2.0 0.12 0.48 0.48 95 1016.7
20220525034234 67 351 1.0 3.0 0.12 0.48 0.48 95 1016.8
20220525033727 67 351 2.0 4.0 0.12 0.48 0.48 95 1016.8
20220525033224 67 340 1.0 4.0 0.13 0.48 0.48 95 1016.9
20220525032727 67 164 0.0 2.0 0.15 0.48 0.48 95 1016.8
20220525032224 67 162 0.0 2.0 0.14 0.47 0.47 95 1016.7
20220525031724 67 120 0.0 1.0 0.05 0.38 0.39 95 1016.7
20220525031225 67 172 0.0 0.0 0.05 0.38 0.38 95 1016.2
20220525030729 67 172 0.0 2.0 0.05 0.38 0.38 95 1016.4
20220525030224 67 172 0.0 2.0 0.05 0.38 0.38 95 1016.4
20220525025720 67 172 0.0 1.0 0.04 0.37 0.37 95 1016.5
20220525025218 67 172 0.0 2.0 0.03 0.36 0.36 95 1016.0
20220525024717 67 172 1.0 4.0 0.03 0.36 0.36 95 1016.2
20220525024213 67 172 1.0 4.0 0.03 0.36 0.36 95 1016.2
20220525023713 67 172 0.0 3.0 0.04 0.36 0.36 94 1016.3
20220525023210 67 163 0.0 3.0 0.03 0.35 0.35 94 1016.3
20220525022709 67 163 0.0 0.0 0.01 0.33 0.33 94 1016.3
20220525022211 67 163 0.0 0.0 0.02 0.33 0.33 94 1016.2
20220525021701 67 163 0.0 0.0 0.02 0.33 0.33 94 1016.0
20220525021155 67 163 0.0 0.0 0.02 0.33 0.33 94 1015.9
20220525020650 67 163 0.0 0.0 0.02 0.33 0.33 94 1015.9
20220525020139 67 163 0.0 0.0 0.02 0.33 0.33 94 1015.9
20220525015633 67 163 0.0 0.0 0.02 0.33 0.33 94 1015.8
20220525015127 67 163 0.0 2.0 0.02 0.33 0.33 94 1015.9
20220525014621 67 163 0.0 2.0 0.02 0.33 0.33 94 1015.8
20220525014123 67 163 0.0 0.0 0.02 0.33 0.33 94 1015.9
20220525013622 67 163 0.0 1.0 0.01 0.32 0.32 94 1015.8
20220525013122 67 163 0.0 1.0 0.01 0.32 0.32 94 1015.6
20220525012623 67 163 0.0 3.0 0.01 0.32 0.32 94 1015.4
20220525012123 67 163 0.0 3.0 0.00 0.31 0.31 94 1015.4
20220525011620 67 162 0.0 4.0 0.00 0.31 0.31 93 1015.6
20220525011119 67 162 0.0 4.0 0.00 0.31 0.31 93 1015.4
20220525010618 67 162 0.0 0.0 0.04 0.31 0.31 93 1015.4
20220525010116 67 162 0.0 3.0 0.13 0.31 0.31 93 1015.4
20220525005618 67 162 1.0 4.0 0.13 0.31 0.31 93 1015.4
20220525005118 67 162 0.0 4.0 0.13 0.31 0.31 93 1015.3
20220525004610 67 172 0.0 3.0 0.13 0.31 0.31 92 1015.3
20220525004111 68 168 0.0 3.0 0.13 0.31 0.31 92 1015.1
20220525003610 68 172 1.0 7.0 0.13 0.31 0.31 91 1015.1
20220525003107 69 226 2.0 9.0 0.13 0.31 0.31 90 1015.2
20220525002606 69 169 2.0 9.0 0.13 0.31 0.31 89 1015.3
20220525002105 70 188 3.0 18.0 0.13 0.31 0.31 88 1015.3
20220525001606 72 169 4.0 18.0 0.13 0.31 0.31 86 1015.2
20220525001105 74 183 3.0 14.0 0.13 0.31 0.31 85 1015.1
20220525000605 76 169 0.0 5.0 0.07 0.25 0.26 88 1014.7
20220525000105 76 166 1.0 4.0 0.00 0.18 0.18 86 1014.1
20220524235603 76 167 1.0 7.0 0.00 0.18 0.18 86 1014.1
20220524235103 76 170 0.0 7.0 0.00 0.18 0.18 86 1014.1
20220524234603 76 166 1.0 6.0 0.00 0.18 0.18 86 1013.9
20220524234106 76 162 1.0 6.0 0.00 0.18 0.18 86 1014.0
20220524233604 76 176 1.0 5.0 0.00 0.18 0.18 85 1014.2
20220524233103 76 167 1.0 7.0 0.00 0.18 0.18 85 1014.2
20220524232603 77 161 1.0 7.0 0.00 0.18 0.18 85 1014.1
20220524232105 77 173 1.0 4.0 0.00 0.18 0.18 84 1014.2
20220524231603 77 136 1.0 7.0 0.00 0.18 0.18 84 1014.3
20220524231103 77 169 1.0 7.0 0.00 0.18 0.18 84 1014.3
20220524230603 77 171 2.0 9.0 0.00 0.18 0.18 84 1014.3
20220524230104 77 171 2.0 9.0 0.00 0.18 0.18 83 1014.4
20220524225604 77 176 1.0 8.0 0.00 0.18 0.18 84 1014.4
20220524225105 77 166 2.0 15.0 0.00 0.18 0.18 83 1014.4
20220524224603 77 165 3.0 15.0 0.00 0.18 0.18 83 1014.3
20220524224104 77 171 3.0 8.0 0.00 0.18 0.18 83 1014.2
20220524223603 77 181 2.0 9.0 0.00 0.18 0.18 83 1014.2
20220524223105 77 158 2.0 9.0 0.00 0.18 0.18 83 1014.0
20220524222605 77 116 2.0 9.0 0.00 0.18 0.18 82 1013.9
20220524222103 77 169 2.0 9.0 0.00 0.18 0.18 84 1014.1
20220524221603 77 169 2.0 16.0 0.00 0.18 0.18 84 1014.3
20220524221102 77 146 2.0 16.0 0.00 0.18 0.18 84 1014.4
20220524220601 77 167 3.0 13.0 0.00 0.18 0.18 83 1014.4
20220524220102 77 192 3.0 9.0 0.00 0.18 0.18 83 1014.3
20220524215559 77 151 2.0 10.0 0.00 0.18 0.18 83 1014.3
20220524215059 78 177 2.0 10.0 0.00 0.18 0.18 83 1014.2
20220524214553 78 169 2.0 8.0 0.00 0.18 0.18 83 1014.2
20220524214043 78 169 2.0 8.0 0.00 0.18 0.18 83 1014.1
20220524213536 78 146 2.0 8.0 0.00 0.18 0.18 84 1014.1
20220524213031 77 140 2.0 8.0 0.00 0.18 0.18 83 1014.0
20220524212520 78 153 2.0 8.0 0.00 0.18 0.18 87 1014.1
20220524212015 77 164 2.0 9.0 0.00 0.18 0.18 86 1014.1
20220524211510 78 146 2.0 9.0 0.00 0.18 0.18 86 1014.2
20220524210958 77 70 2.0 8.0 0.00 0.18 0.18 87 1014.1
20220524210453 77 162 3.0 12.0 0.00 0.18 0.18 87 1014.1
20220524205946 77 172 2.0 12.0 0.00 0.18 0.18 88 1014.0
20220524205437 76 85 2.0 7.0 0.00 0.18 0.18 89 1014.0
20220524204927 76 161 2.0 7.0 0.00 0.18 0.18 88 1014.0
20220524204421 76 170 1.0 6.0 0.00 0.18 0.18 90 1014.1
20220524203911 75 125 1.0 6.0 0.00 0.18 0.18 91 1014.2
20220524203405 75 111 1.0 5.0 0.00 0.18 0.18 92 1014.3
20220524202859 74 112 1.0 5.0 0.00 0.18 0.18 93 1014.5
20220524202349 73 110 1.0 4.0 0.00 0.18 0.18 93 1014.6
20220524201843 73 98 1.0 4.0 0.00 0.18 0.18 94 1014.8
20220524201340 72 107 1.0 4.0 0.00 0.18 0.18 94 1014.8
20220524200827 72 91 1.0 4.0 0.01 0.18 0.18 94 1014.9
20220524200320 72 172 0.0 3.0 0.03 0.18 0.18 94 1014.9
20220524195818 71 174 1.0 3.0 0.04 0.18 0.18 94 1015.1
20220524195306 71 141 1.0 4.0 0.04 0.18 0.18 94 1015.1
20220524194759 70 165 1.0 4.0 0.04 0.18 0.18 94 1015.2
20220524194256 70 117 1.0 5.0 0.05 0.18 0.18 94 1015.3
20220524193743 70 99 0.0 5.0 0.05 0.18 0.18 94 1015.2
20220524193239 69 162 0.0 2.0 0.06 0.18 0.18 94 1015.3
20220524192733 69 162 0.0 2.0 0.06 0.18 0.18 94 1015.3
20220524192221 69 162 0.0 2.0 0.06 0.18 0.18 94 1015.4
20220524191716 69 162 1.0 7.0 0.06 0.18 0.18 94 1015.6
20220524191210 69 162 1.0 7.0 0.06 0.18 0.18 94 1015.7
20220524190659 69 292 1.0 8.0 0.05 0.17 0.17 94 1015.8
20220524190153 69 186 1.0 7.0 0.03 0.15 0.15 94 1015.9
20220524185648 69 154 1.0 8.0 0.02 0.14 0.14 93 1015.9
20220524185136 69 157 2.0 8.0 0.02 0.14 0.14 93 1015.8
20220524184631 69 146 1.0 6.0 0.08 0.14 0.14 93 1015.8
20220524184125 70 219 2.0 8.0 0.13 0.13 0.13 93 1015.9
20220524183614 70 182 2.0 9.0 0.13 0.13 0.13 93 1015.8
20220524183110 71 198 2.0 10.0 0.12 0.12 0.12 93 1015.9
20220524182604 71 161 2.0 10.0 0.12 0.12 0.12 93 1015.9
20220524182054 71 162 1.0 10.0 0.12 0.12 0.12 93 1016.0
20220524181547 71 160 0.0 4.0 0.12 0.12 0.12 93 1016.1
20220524181042 71 160 1.0 4.0 0.12 0.12 0.12 93 1016.1
20220524180531 71 149 1.0 5.0 0.12 0.12 0.12 92 1016.1
20220524180024 71 240 1.0 13.0 0.12 0.12 0.12 91 1016.1
20220524175519 72 158 2.0 13.0 0.12 0.12 0.12 89 1016.3
20220524175009 74 238 2.0 6.0 0.12 0.12 0.12 85 1016.3
20220524174503 76 165 1.0 5.0 0.01 0.01 0.01 83 1016.4
20220524173958 76 101 2.0 5.0 0.00 0.00 0.00 83 1015.8
20220524173447 76 88 2.0 5.0 0.00 0.00 0.00 83 1015.9
20220524172940 76 92 1.0 5.0 0.00 0.00 0.00 83 1016.1
20220524172435 76 170 1.0 5.0 0.00 0.00 0.00 84 1016.2
20220524171926 75 167 2.0 7.0 0.00 0.00 0.00 84 1016.1
20220524171418 75 125 3.0 7.0 0.00 0.00 0.00 84 1016.3
20220524170913 76 100 1.0 6.0 0.00 0.00 0.00 83 1016.3
20220524170404 76 176 2.0 6.0 0.00 0.00 0.00 83 1016.4
20220524165856 76 95 3.0 7.0 0.00 0.00 0.00 82 1016.4
20220524165350 77 84 2.0 7.0 0.00 0.00 0.00 80 1016.6
20220524164845 78 104 2.0 9.0 0.00 0.00 0.00 81 1016.6
20220524164335 77 190 2.0 9.0 0.00 0.00 0.00 82 1016.6
20220524163832 77 160 3.0 7.0 0.00 0.00 0.00 82 1016.7
20220524163319 76 100 3.0 7.0 0.00 0.00 0.00 84 1016.7
20220524162819 75 101 2.0 7.0 0.00 0.00 0.00 84 1016.9
20220524162316 76 105 1.0 5.0 0.00 0.00 0.00 83 1017.0
20220524161813 76 203 2.0 8.0 0.00 0.00 0.00 83 1017.0
20220524161313 76 204 2.0 8.0 0.00 0.00 0.00 83 1017.0
20220524160814 75 112 2.0 7.0 0.00 0.00 0.00 85 1017.1
20220524160311 74 107 2.0 7.0 0.00 0.00 0.00 85 1017.0
20220524155810 74 146 2.0 6.0 0.00 0.00 0.00 87 1017.2
20220524155310 73 219 2.0 9.0 0.00 0.00 0.00 87 1017.2
20220524154811 73 172 2.0 9.0 0.00 0.00 0.00 87 1017.2
20220524154313 72 176 2.0 9.0 0.00 0.00 0.00 87 1017.2
20220524153808 72 113 3.0 9.0 0.00 0.00 0.00 87 1017.2
20220524153310 72 148 2.0 11.0 0.00 0.00 0.00 87 1017.2
20220524152809 72 175 2.0 11.0 0.00 0.00 0.00 88 1017.2
20220524152309 72 99 3.0 9.0 0.00 0.00 0.00 88 1017.2
20220524151809 71 200 2.0 9.0 0.00 0.00 0.00 88 1017.3
20220524151302 71 110 1.0 7.0 0.00 0.00 0.00 90 1017.1
20220524150801 70 53 1.0 7.0 0.00 0.00 0.00 90 1017.3
20220524150253 70 96 2.0 7.0 0.00 0.00 0.00 90 1017.3
20220524145752 69 152 2.0 7.0 0.00 0.00 0.00 91 1017.4
20220524145251 69 158 2.0 7.0 0.00 0.00 0.00 91 1017.4
20220524144750 69 113 2.0 7.0 0.00 0.00 0.00 91 1017.4
20220524144249 69 70 2.0 8.0 0.00 0.00 0.00 92 1017.5
20220524143749 68 115 2.0 8.0 0.00 0.00 0.00 92 1017.4
20220524143250 68 116 1.0 6.0 0.00 0.00 0.00 92 1017.5
20220524142746 67 85 1.0 6.0 0.00 0.00 0.00 93 1017.5
20220524142245 67 112 3.0 8.0 0.00 0.00 0.00 93 1017.5
20220524141745 67 97 3.0 8.0 0.00 0.00 0.00 93 1017.5
20220524141245 66 104 4.0 8.0 0.00 0.00 0.00 94 1017.5
20220524140744 66 77 3.0 8.0 0.00 0.00 0.00 94 1017.5
20220524140241 66 124 2.0 7.0 0.00 0.00 0.00 94 1017.7
20220524135740 65 70 3.0 7.0 0.00 0.00 0.00 94 1017.7
20220524135241 65 68 3.0 10.0 0.00 0.00 0.00 94 1017.7
20220524134740 65 79 4.0 10.0 0.00 0.00 0.00 94 1017.8
20220524134242 65 81 3.0 7.0 0.00 0.00 0.00 94 1017.9
20220524133741 65 77 3.0 8.0 0.00 0.00 0.00 94 1018.0
20220524133241 64 130 3.0 8.0 0.00 0.01 0.00 94 1018.0
20220524132741 64 77 2.0 7.0 0.00 0.01 0.00 94 1018.0
20220524132241 64 108 2.0 5.0 0.00 0.01 0.00 94 1018.0
20220524131740 64 84 3.0 7.0 0.00 0.01 0.00 94 1018.0
20220524131240 64 94 3.0 7.0 0.00 0.01 0.00 94 1018.0
20220524130740 64 70 3.0 7.0 0.00 0.01 0.00 94 1018.0
20220524130242 63 65 4.0 8.0 0.00 0.01 0.00 94 1018.0
20220524125740 63 84 4.0 8.0 0.00 0.01 0.00 94 1018.2
20220524125240 63 84 3.0 7.0 0.00 0.01 0.00 94 1018.1
20220524124742 63 115 3.0 6.0 0.00 0.01 0.00 94 1018.2
20220524124241 63 89 3.0 6.0 0.00 0.01 0.00 94 1018.3
20220524123736 63 63 2.0 7.0 0.00 0.01 0.00 94 1018.4
20220524123237 63 86 3.0 7.0 0.00 0.01 0.00 94 1018.6
20220524122739 63 56 3.0 7.0 0.00 0.01 0.00 94 1018.6
20220524122237 63 72 2.0 7.0 0.00 0.01 0.00 94 1018.5
20220524121740 63 101 1.0 5.0 0.00 0.01 0.00 94 1018.5
20220524121236 63 79 2.0 5.0 0.00 0.01 0.00 94 1018.4
20220524120739 63 103 2.0 6.0 0.00 0.01 0.00 94 1018.4
20220524120234 62 99 2.0 6.0 0.00 0.01 0.00 94 1018.4
20220524115733 62 76 2.0 6.0 0.00 0.01 0.00 94 1018.2
20220524115235 62 88 3.0 6.0 0.00 0.01 0.00 94 1018.1
20220524114733 62 105 2.0 6.0 0.00 0.01 0.00 94 1018.1
20220524114230 62 87 2.0 5.0 0.00 0.01 0.00 94 1018.3
20220524113729 62 113 2.0 5.0 0.00 0.01 0.00 94 1018.2
20220524113228 62 55 2.0 7.0 0.00 0.01 0.00 94 1018.1
20220524112726 62 61 3.0 7.0 0.00 0.01 0.00 94 1017.8
20220524112226 63 61 3.0 8.0 0.00 0.01 0.00 94 1017.7
20220524111726 63 74 4.0 8.0 0.00 0.01 0.00 94 1017.5
20220524111226 63 56 3.0 7.0 0.00 0.01 0.00 94 1017.6
20220524110724 63 108 3.0 7.0 0.00 0.01 0.00 94 1017.5
20220524110224 63 68 3.0 7.0 0.00 0.01 0.00 94 1017.6
20220524105724 63 43 3.0 6.0 0.00 0.01 0.00 93 1017.6
20220524105224 63 103 2.0 6.0 0.00 0.02 0.00 93 1017.6
20220524104724 63 78 2.0 6.0 0.00 0.02 0.00 93 1017.6
20220524104224 63 56 3.0 7.0 0.00 0.02 0.00 93 1017.6
20220524103722 63 74 2.0 7.0 0.00 0.02 0.00 93 1017.5
20220524103222 63 39 2.0 6.0 0.00 0.02 0.00 93 1017.4
20220524102721 63 69 2.0 6.0 0.00 0.03 0.00 93 1017.2
20220524102218 63 81 2.0 7.0 0.00 0.03 0.00 93 1017.1
20220524101720 63 43 2.0 7.0 0.00 0.03 0.00 93 1017.1
20220524101221 63 75 2.0 7.0 0.00 0.03 0.00 93 1017.1
20220524100719 63 77 2.0 7.0 0.00 0.03 0.00 93 1017.1
20220524100218 63 73 1.0 7.0 0.00 0.03 0.00 93 1017.1
20220524095719 63 95 2.0 10.0 0.00 0.03 0.00 93 1017.1
20220524095212 63 96 3.0 10.0 0.00 0.03 0.00 93 1017.1
20220524094707 63 77 2.0 9.0 0.00 0.03 0.00 93 1017.1
20220524094207 63 94 1.0 5.0 0.00 0.03 0.00 93 1017.0
20220524093704 63 117 1.0 5.0 0.00 0.03 0.00 93 1017.1
20220524093202 63 95 0.0 4.0 0.00 0.03 0.00 93 1017.1
20220524092700 63 94 0.0 4.0 0.00 0.03 0.00 93 1017.1
20220524092158 63 93 0.0 4.0 0.00 0.03 0.00 93 1017.0
20220524091702 63 93 1.0 3.0 0.00 0.03 0.00 93 1017.1
20220524091205 63 93 1.0 4.0 0.00 0.04 0.00 93 1017.1
20220524090656 63 82 1.0 4.0 0.00 0.04 0.00 93 1017.2
20220524090156 63 86 1.0 5.0 0.00 0.04 0.00 93 1017.2
20220524085656 63 85 1.0 5.0 0.00 0.04 0.00 93 1017.1
20220524085155 63 107 1.0 3.0 0.00 0.04 0.00 93 1017.1
20220524084656 63 112 1.0 5.0 0.00 0.04 0.00 93 1017.0
20220524084154 63 98 1.0 5.0 0.00 0.04 0.00 92 1016.8
20220524083653 63 133 1.0 8.0 0.00 0.04 0.00 92 1016.7
20220524083150 63 74 1.0 8.0 0.00 0.04 0.00 92 1016.7
20220524082652 63 80 1.0 5.0 0.00 0.04 0.00 92 1016.7
20220524082142 63 94 1.0 5.0 0.00 0.04 0.00 92 1016.5
20220524081636 63 131 2.0 5.0 0.00 0.04 0.00 92 1016.6
20220524081133 63 103 3.0 6.0 0.00 0.04 0.00 92 1016.5
20220524080620 63 111 2.0 6.0 0.00 0.04 0.00 92 1016.5
20220524080114 64 84 1.0 4.0 0.00 0.04 0.00 92 1016.6
20220524075608 64 63 1.0 4.0 0.00 0.04 0.00 92 1016.6
20220524075101 64 105 1.0 5.0 0.00 0.04 0.00 92 1016.7
20220524074552 64 108 2.0 5.0 0.00 0.04 0.00 92 1016.7
20220524074050 64 107 2.0 5.0 0.00 0.04 0.00 92 1016.8
20220524073544 64 100 1.0 4.0 0.00 0.04 0.00 92 1016.8
20220524073044 64 90 1.0 4.0 0.00 0.04 0.00 92 1016.9
20220524072545 64 89 1.0 4.0 0.00 0.04 0.00 92 1017.0
20220524072043 64 89 1.0 4.0 0.00 0.04 0.00 92 1017.1
20220524071542 64 90 1.0 3.0 0.00 0.04 0.00 92 1017.3
20220524071038 64 88 1.0 3.0 0.00 0.04 0.00 92 1017.4
20220524070536 64 88 1.0 4.0 0.00 0.04 0.00 92 1017.4
20220524070035 64 87 1.0 4.0 0.00 0.04 0.00 92 1017.4
20220524065533 64 89 1.0 3.0 0.00 0.04 0.00 92 1017.4
20220524065031 64 91 0.0 3.0 0.00 0.04 0.00 92 1017.6
20220524064530 64 91 0.0 1.0 0.00 0.04 0.00 92 1017.7
20220524064026 64 91 0.0 0.0 0.00 0.04 0.00 91 1017.8
20220524063525 64 91 0.0 0.0 0.00 0.04 0.00 91 1017.8
20220524063027 64 91 0.0 1.0 0.00 0.04 0.00 91 1017.8
20220524062524 64 91 0.0 3.0 0.00 0.04 0.00 91 1017.8
20220524062022 64 91 1.0 4.0 0.00 0.04 0.00 92 1017.7
20220524061522 64 91 1.0 4.0 0.00 0.04 0.00 90 1017.6
20220524061027 65 120 3.0 6.0 0.00 0.04 0.00 90 1017.6
20220524060523 65 89 3.0 6.0 0.00 0.04 0.00 90 1017.5
20220524060020 65 90 4.0 7.0 0.00 0.04 0.00 90 1017.6
20220524055518 65 88 4.0 7.0 0.00 0.04 0.00 90 1017.6
20220524055017 65 82 3.0 7.0 0.00 0.04 0.00 90 1017.6
20220524054516 65 56 3.0 7.0 0.00 0.04 0.00 91 1017.6
20220524054014 65 114 2.0 7.0 0.00 0.04 0.00 91 1017.7
20220524053514 65 108 2.0 7.0 0.00 0.04 0.00 91 1017.6
20220524053014 65 91 3.0 7.0 0.00 0.04 0.00 91 1017.5
20220524052517 65 95 2.0 6.0 0.00 0.04 0.00 91 1017.5
20220524052012 65 108 2.0 7.0 0.00 0.04 0.00 90 1017.5
20220524051515 65 120 1.0 7.0 0.00 0.04 0.00 90 1017.5
20220524051012 65 105 1.0 4.0 0.00 0.04 0.00 90 1017.5
20220524050512 65 144 1.0 4.0 0.00 0.04 0.00 90 1017.6
20220524050009 65 146 2.0 7.0 0.00 0.04 0.00 90 1017.5
20220524045457 65 112 1.0 7.0 0.00 0.04 0.04 90 1017.5
20220524044953 65 96 1.0 5.0 0.00 0.04 0.04 90 1017.5
20220524044453 65 127 2.0 10.0 0.00 0.04 0.04 90 1017.5
20220524043954 65 104 3.0 10.0 0.00 0.04 0.04 90 1017.7
20220524043452 65 112 2.0 7.0 0.00 0.04 0.04 90 1017.8
20220524042953 65 86 2.0 7.0 0.00 0.04 0.04 90 1017.8
20220524042455 65 107 3.0 9.0 0.00 0.04 0.04 90 1017.9
20220524041953 65 124 3.0 9.0 0.00 0.04 0.04 90 1018.0
20220524041449 65 88 4.0 9.0 0.00 0.04 0.04 90 1018.1
20220524040952 65 104 4.0 9.0 0.00 0.04 0.04 90 1018.1
20220524040451 65 113 4.0 9.0 0.00 0.04 0.04 90 1018.1